createdAt,value
2023-02-07T00:00:30.000Z,2.00
2023-02-07T00:01:31.000Z,2.00
2023-02-07T00:02:30.000Z,2.02
2023-02-07T00:03:30.000Z,2.01
2023-02-07T00:04:30.000Z,2.03
2023-02-07T00:05:30.000Z,2.04
2023-02-07T00:06:33.000Z,2.04
2023-02-07T00:07:30.000Z,2.05
2023-02-07T00:08:30.000Z,2.04
2023-02-07T00:09:30.000Z,2.04
2023-02-07T00:10:30.000Z,2.06
2023-02-07T00:11:30.000Z,2.08
2023-02-07T00:12:30.000Z,2.05
2023-02-07T00:13:30.000Z,2.05
2023-02-07T00:14:30.000Z,2.04
2023-02-07T00:15:30.000Z,2.04
2023-02-07T00:16:30.000Z,2.02
2023-02-07T00:17:30.000Z,2.03
2023-02-07T00:18:31.000Z,2.05
2023-02-07T00:19:30.000Z,2.05
2023-02-07T00:20:30.000Z,2.03
2023-02-07T00:21:30.000Z,2.04
2023-02-07T00:22:30.000Z,2.02
2023-02-07T00:23:30.000Z,2.03
2023-02-07T00:24:30.000Z,2.03
2023-02-07T00:25:30.000Z,2.01
2023-02-07T00:26:30.000Z,2.01
2023-02-07T00:27:30.000Z,2.01
2023-02-07T00:28:30.000Z,2.01
2023-02-07T00:29:31.000Z,2.00
2023-02-07T00:30:29.000Z,1.98
2023-02-07T00:31:31.000Z,1.98
2023-02-07T00:32:31.000Z,1.94
2023-02-07T00:33:30.000Z,1.96
2023-02-07T00:34:30.000Z,1.92
2023-02-07T00:35:29.000Z,1.90
2023-02-07T00:36:31.000Z,1.91
2023-02-07T00:37:30.000Z,1.90
2023-02-07T00:38:30.000Z,1.88
2023-02-07T00:39:30.000Z,1.88
2023-02-07T00:40:30.000Z,1.85
2023-02-07T00:41:30.000Z,1.85
2023-02-07T00:42:30.000Z,1.84
2023-02-07T00:43:30.000Z,1.85
2023-02-07T00:44:31.000Z,1.83
2023-02-07T00:45:30.000Z,1.84
2023-02-07T00:46:30.000Z,1.81
2023-02-07T00:47:30.000Z,1.81
2023-02-07T00:48:30.000Z,1.80
2023-02-07T00:49:29.000Z,1.78
2023-02-07T00:50:29.000Z,1.76
2023-02-07T00:51:30.000Z,1.78
2023-02-07T00:52:29.000Z,1.79
2023-02-07T00:53:30.000Z,1.78
2023-02-07T00:54:30.000Z,1.76
2023-02-07T00:55:30.000Z,1.75
2023-02-07T00:56:30.000Z,1.76
2023-02-07T00:57:30.000Z,1.76
2023-02-07T00:58:30.000Z,1.74
2023-02-07T00:59:29.000Z,1.74
2023-02-07T01:00:30.000Z,1.72
2023-02-07T01:01:30.000Z,1.73
2023-02-07T01:02:29.000Z,1.75
2023-02-07T01:03:30.000Z,1.73
2023-02-07T01:04:30.000Z,1.74
2023-02-07T01:05:29.000Z,1.71
2023-02-07T01:06:32.000Z,1.71
2023-02-07T01:07:30.000Z,1.73
2023-02-07T01:08:30.000Z,1.70
2023-02-07T01:09:30.000Z,1.69
2023-02-07T01:10:31.000Z,1.69
2023-02-07T01:11:30.000Z,1.68
2023-02-07T01:12:30.000Z,1.64
2023-02-07T01:13:30.000Z,1.68
2023-02-07T01:14:30.000Z,1.67
2023-02-07T01:15:30.000Z,1.66
2023-02-07T01:16:33.000Z,1.65
2023-02-07T01:17:29.000Z,1.66
2023-02-07T01:18:29.000Z,1.64
2023-02-07T01:19:30.000Z,1.65
2023-02-07T01:20:30.000Z,1.62
2023-02-07T01:21:30.000Z,1.61
2023-02-07T01:22:29.000Z,1.62
2023-02-07T01:23:29.000Z,1.58
2023-02-07T01:24:30.000Z,1.58
2023-02-07T01:25:30.000Z,1.61
2023-02-07T01:26:30.000Z,1.58
2023-02-07T01:27:30.000Z,1.60
2023-02-07T01:28:30.000Z,1.57
2023-02-07T01:29:29.000Z,1.57
2023-02-07T01:30:30.000Z,1.53
2023-02-07T01:31:29.000Z,1.52
2023-02-07T01:32:32.000Z,1.54
2023-02-07T01:33:29.000Z,1.51
2023-02-07T01:34:29.000Z,1.49
2023-02-07T01:35:30.000Z,1.52
2023-02-07T01:36:29.000Z,1.48
2023-02-07T01:37:29.000Z,1.45
2023-02-07T01:38:29.000Z,1.45
2023-02-07T01:39:29.000Z,1.46
2023-02-07T01:40:30.000Z,1.43
2023-02-07T01:41:30.000Z,1.46
2023-02-07T01:42:29.000Z,1.41
2023-02-07T01:43:30.000Z,1.42
2023-02-07T01:44:50.000Z,1.42
2023-02-07T01:45:36.000Z,1.41
2023-02-07T01:46:31.000Z,1.35
2023-02-07T01:47:31.000Z,1.37
2023-02-07T01:48:35.000Z,1.35
2023-02-07T01:49:34.000Z,1.33
2023-02-07T01:50:30.000Z,1.32
2023-02-07T01:51:31.000Z,1.30
2023-02-07T01:52:34.000Z,1.29
2023-02-07T01:53:33.000Z,1.27
2023-02-07T01:54:34.000Z,1.28
2023-02-07T01:55:33.000Z,1.24
2023-02-07T01:56:30.000Z,1.24
2023-02-07T01:57:30.000Z,1.24
2023-02-07T01:58:32.000Z,1.25
2023-02-07T01:59:32.000Z,1.19
2023-02-07T02:00:30.000Z,1.19
2023-02-07T02:01:30.000Z,1.17
2023-02-07T02:02:34.000Z,1.18
2023-02-07T02:03:31.000Z,1.16
2023-02-07T02:04:30.000Z,1.15
2023-02-07T02:05:32.000Z,1.11
2023-02-07T02:06:32.000Z,1.12
2023-02-07T02:07:33.000Z,1.10
2023-02-07T02:08:30.000Z,1.05
2023-02-07T02:09:30.000Z,1.05
2023-02-07T02:10:50.000Z,1.03
2023-02-07T02:11:43.000Z,1.02
2023-02-07T02:12:42.000Z,1.00
2023-02-07T02:13:48.000Z,0.99
2023-02-07T02:14:47.000Z,0.99
2023-02-07T02:15:39.000Z,0.97
2023-02-07T02:16:50.000Z,0.98
2023-02-07T02:17:46.000Z,0.94
2023-02-07T02:18:46.000Z,0.93
2023-02-07T02:19:46.000Z,0.92
2023-02-07T02:20:50.000Z,0.89
2023-02-07T02:21:50.000Z,0.92
2023-02-07T02:22:54.000Z,0.87
2023-02-07T02:23:45.000Z,0.87
2023-02-07T02:24:50.000Z,0.86
2023-02-07T02:25:40.000Z,0.86
2023-02-07T02:26:52.000Z,0.84
2023-02-07T02:27:40.000Z,0.82
2023-02-07T02:28:52.000Z,0.81
2023-02-07T02:29:40.000Z,0.80
2023-02-07T02:30:46.000Z,0.79
2023-02-07T02:31:45.000Z,0.76
2023-02-07T02:32:39.000Z,0.80
2023-02-07T02:33:40.000Z,0.78
2023-02-07T02:34:39.000Z,0.78
2023-02-07T02:35:40.000Z,0.75
2023-02-07T02:36:46.000Z,0.72
2023-02-07T02:37:42.000Z,0.70
2023-02-07T02:38:41.000Z,0.73
2023-02-07T02:39:39.000Z,0.71
2023-02-07T02:40:40.000Z,0.71
2023-02-07T02:41:38.000Z,0.73
2023-02-07T02:42:40.000Z,0.68
2023-02-07T02:43:40.000Z,0.64
2023-02-07T02:44:36.000Z,0.66
2023-02-07T02:45:34.000Z,0.62
2023-02-07T02:46:34.000Z,0.59
2023-02-07T02:47:31.000Z,0.61
2023-02-07T02:48:32.000Z,0.61
2023-02-07T02:49:32.000Z,0.61
2023-02-07T02:50:32.000Z,0.57
2023-02-07T02:51:30.000Z,0.59
2023-02-07T02:52:30.000Z,0.57
2023-02-07T02:53:30.000Z,0.61
2023-02-07T02:54:35.000Z,0.60
2023-02-07T02:55:58.000Z,0.57
2023-02-07T02:56:40.000Z,0.60
2023-02-07T02:57:47.000Z,0.55
2023-02-07T02:58:47.000Z,0.52
2023-02-07T02:59:49.000Z,0.51
2023-02-07T03:00:39.000Z,0.50
2023-02-07T03:01:48.000Z,0.50
2023-02-07T03:02:42.000Z,0.49
2023-02-07T03:03:39.000Z,0.43
2023-02-07T03:04:49.000Z,0.44
2023-02-07T03:05:41.000Z,0.40
2023-02-07T03:06:45.000Z,0.43
2023-02-07T03:07:44.000Z,0.42
2023-02-07T03:08:41.000Z,0.40
2023-02-07T03:09:39.000Z,0.43
2023-02-07T03:10:37.000Z,0.44
2023-02-07T03:11:38.000Z,0.41
2023-02-07T03:12:50.000Z,0.37
2023-02-07T03:14:05.000Z,0.37
2023-02-07T03:14:42.000Z,0.37
2023-02-07T03:15:42.000Z,0.34
2023-02-07T03:16:38.000Z,0.35
2023-02-07T03:17:42.000Z,0.30
2023-02-07T03:18:44.000Z,0.31
2023-02-07T03:19:36.000Z,0.31
2023-02-07T03:20:37.000Z,0.32
2023-02-07T03:21:35.000Z,0.30
2023-02-07T03:22:31.000Z,0.29
2023-02-07T03:23:31.000Z,0.30
2023-02-07T03:24:32.000Z,0.28
2023-02-07T03:25:30.000Z,0.31
2023-02-07T03:26:31.000Z,0.30
2023-02-07T03:27:31.000Z,0.28
2023-02-07T03:28:31.000Z,0.30
2023-02-07T03:29:34.000Z,0.32
2023-02-07T03:30:33.000Z,0.30
2023-02-07T03:31:30.000Z,0.29
2023-02-07T03:32:35.000Z,0.29
2023-02-07T03:33:30.000Z,0.26
2023-02-07T03:34:40.000Z,0.26
2023-02-07T03:35:40.000Z,0.25
2023-02-07T03:36:47.000Z,0.24
2023-02-07T03:37:37.000Z,0.25
2023-02-07T03:38:30.000Z,0.26
2023-02-07T03:39:30.000Z,0.25
2023-02-07T03:40:36.000Z,0.27
2023-02-07T03:41:36.000Z,0.31
2023-02-07T03:42:38.000Z,0.29
2023-02-07T03:43:33.000Z,0.31
2023-02-07T03:44:33.000Z,0.31
2023-02-07T03:45:30.000Z,0.32
2023-02-07T03:46:33.000Z,0.33
2023-02-07T03:47:30.000Z,0.36
2023-02-07T03:48:30.000Z,0.33
2023-02-07T03:49:30.000Z,0.35
2023-02-07T03:50:29.000Z,0.33
2023-02-07T03:51:30.000Z,0.29
2023-02-07T03:52:29.000Z,0.31
2023-02-07T03:53:29.000Z,0.33
2023-02-07T03:54:30.000Z,0.34
2023-02-07T03:55:31.000Z,0.37
2023-02-07T03:56:29.000Z,0.30
2023-02-07T03:57:29.000Z,0.30
2023-02-07T03:58:29.000Z,0.30
2023-02-07T03:59:30.000Z,0.26
2023-02-07T04:00:29.000Z,0.30
2023-02-07T04:01:30.000Z,0.31
2023-02-07T04:02:29.000Z,0.31
2023-02-07T04:03:29.000Z,0.30
2023-02-07T04:04:29.000Z,0.32
2023-02-07T04:05:29.000Z,0.27
2023-02-07T04:06:29.000Z,0.25
2023-02-07T04:07:29.000Z,0.24
2023-02-07T04:08:30.000Z,0.22
2023-02-07T04:09:30.000Z,0.21
2023-02-07T04:10:29.000Z,0.22
2023-02-07T04:11:30.000Z,0.23
2023-02-07T04:12:31.000Z,0.21
2023-02-07T04:13:29.000Z,0.21
2023-02-07T04:14:29.000Z,0.24
2023-02-07T04:15:29.000Z,0.22
2023-02-07T04:16:30.000Z,0.19
2023-02-07T04:17:29.000Z,0.22
2023-02-07T04:18:29.000Z,0.21
2023-02-07T04:19:30.000Z,0.17
2023-02-07T04:20:30.000Z,0.17
2023-02-07T04:21:29.000Z,0.17
2023-02-07T04:22:30.000Z,0.16
2023-02-07T04:23:30.000Z,0.15
2023-02-07T04:24:31.000Z,0.15
2023-02-07T04:25:30.000Z,0.17
2023-02-07T04:26:30.000Z,0.16
2023-02-07T04:27:30.000Z,0.18
2023-02-07T04:28:30.000Z,0.19
2023-02-07T04:29:29.000Z,0.14
2023-02-07T04:30:30.000Z,0.18
2023-02-07T04:31:30.000Z,0.18
2023-02-07T04:32:30.000Z,0.14
2023-02-07T04:33:30.000Z,0.14
2023-02-07T04:34:30.000Z,0.18
2023-02-07T04:35:30.000Z,0.14
2023-02-07T04:36:30.000Z,0.15
2023-02-07T04:37:30.000Z,0.16
2023-02-07T04:38:30.000Z,0.16
2023-02-07T04:39:30.000Z,0.13
2023-02-07T04:40:30.000Z,0.13
2023-02-07T04:41:30.000Z,0.13
2023-02-07T04:42:30.000Z,0.13
2023-02-07T04:43:34.000Z,0.13
2023-02-07T04:44:30.000Z,0.07
2023-02-07T04:45:30.000Z,0.05
2023-02-07T04:46:30.000Z,0.09
2023-02-07T04:47:30.000Z,0.06
2023-02-07T04:48:30.000Z,0.01
2023-02-07T04:49:30.000Z,-0.01
2023-02-07T04:50:30.000Z,-0.02
2023-02-07T04:51:30.000Z,-0.06
2023-02-07T04:52:30.000Z,-0.07
2023-02-07T04:53:30.000Z,-0.10
2023-02-07T04:54:30.000Z,-0.12
2023-02-07T04:55:30.000Z,-0.11
2023-02-07T04:56:30.000Z,-0.12
2023-02-07T04:57:30.000Z,-0.16
2023-02-07T04:58:30.000Z,-0.20
2023-02-07T04:59:30.000Z,-0.20
2023-02-07T05:00:30.000Z,-0.18
2023-02-07T05:01:30.000Z,-0.17
2023-02-07T05:02:29.000Z,-0.14
2023-02-07T05:03:29.000Z,-0.13
2023-02-07T05:04:29.000Z,-0.12
2023-02-07T05:05:29.000Z,-0.13
2023-02-07T05:06:29.000Z,-0.16
2023-02-07T05:07:29.000Z,-0.17
2023-02-07T05:08:29.000Z,-0.20
2023-02-07T05:09:29.000Z,-0.18
2023-02-07T05:10:29.000Z,-0.21
2023-02-07T05:11:29.000Z,-0.20
2023-02-07T05:12:29.000Z,-0.21
2023-02-07T05:13:29.000Z,-0.25
2023-02-07T05:14:29.000Z,-0.24
2023-02-07T05:15:29.000Z,-0.24
2023-02-07T05:16:29.000Z,-0.23
2023-02-07T05:17:33.000Z,-0.20
2023-02-07T05:18:29.000Z,-0.18
2023-02-07T05:19:29.000Z,-0.20
2023-02-07T05:20:29.000Z,-0.25
2023-02-07T05:21:29.000Z,-0.26
2023-02-07T05:22:29.000Z,-0.27
2023-02-07T05:23:29.000Z,-0.28
2023-02-07T05:24:29.000Z,-0.25
2023-02-07T05:25:29.000Z,-0.23
2023-02-07T05:26:29.000Z,-0.24
2023-02-07T05:27:29.000Z,-0.22
2023-02-07T05:28:29.000Z,-0.27
2023-02-07T05:29:29.000Z,-0.32
2023-02-07T05:30:29.000Z,-0.32
2023-02-07T05:31:34.000Z,-0.31
2023-02-07T05:32:35.000Z,-0.33
2023-02-07T05:33:29.000Z,-0.33
2023-02-07T05:34:29.000Z,-0.32
2023-02-07T05:35:38.000Z,-0.37
2023-02-07T05:36:29.000Z,-0.37
2023-02-07T05:37:29.000Z,-0.33
2023-02-07T05:38:29.000Z,-0.33
2023-02-07T05:39:29.000Z,-0.31
2023-02-07T05:40:29.000Z,-0.33
2023-02-07T05:41:29.000Z,-0.35
2023-02-07T05:42:30.000Z,-0.33
2023-02-07T05:43:29.000Z,-0.35
2023-02-07T05:44:29.000Z,-0.37
2023-02-07T05:45:29.000Z,-0.41
2023-02-07T05:46:29.000Z,-0.48
2023-02-07T05:47:30.000Z,-0.50
2023-02-07T05:48:29.000Z,-0.50
2023-02-07T05:49:30.000Z,-0.47
2023-02-07T05:50:30.000Z,-0.49
2023-02-07T05:51:29.000Z,-0.48
2023-02-07T05:52:29.000Z,-0.51
2023-02-07T05:53:29.000Z,-0.52
2023-02-07T05:54:30.000Z,-0.53
2023-02-07T05:55:29.000Z,-0.52
2023-02-07T05:56:29.000Z,-0.50
2023-02-07T05:57:30.000Z,-0.49
2023-02-07T05:58:29.000Z,-0.49
2023-02-07T05:59:29.000Z,-0.47
2023-02-07T06:00:29.000Z,-0.45
2023-02-07T06:01:30.000Z,-0.43
2023-02-07T06:02:29.000Z,-0.44
2023-02-07T06:03:30.000Z,-0.46
2023-02-07T06:04:30.000Z,-0.49
2023-02-07T06:05:30.000Z,-0.49
2023-02-07T06:06:30.000Z,-0.51
2023-02-07T06:07:30.000Z,-0.48
2023-02-07T06:08:30.000Z,-0.46
2023-02-07T06:09:30.000Z,-0.51
2023-02-07T06:10:30.000Z,-0.55
2023-02-07T06:11:30.000Z,-0.56
2023-02-07T06:12:30.000Z,-0.59
2023-02-07T06:13:30.000Z,-0.62
2023-02-07T06:14:30.000Z,-0.64
2023-02-07T06:15:30.000Z,-0.66
2023-02-07T06:16:30.000Z,-0.70
2023-02-07T06:17:30.000Z,-0.70
2023-02-07T06:18:30.000Z,-0.73
2023-02-07T06:19:30.000Z,-0.74
2023-02-07T06:20:29.000Z,-0.74
2023-02-07T06:21:30.000Z,-0.74
2023-02-07T06:22:30.000Z,-0.72
2023-02-07T06:23:30.000Z,-0.67
2023-02-07T06:24:30.000Z,-0.74
2023-02-07T06:25:30.000Z,-0.74
2023-02-07T06:26:30.000Z,-0.74
2023-02-07T06:27:30.000Z,-0.75
2023-02-07T06:28:30.000Z,-0.80
2023-02-07T06:29:30.000Z,-0.84
2023-02-07T06:30:30.000Z,-0.84
2023-02-07T06:31:30.000Z,-0.86
2023-02-07T06:32:30.000Z,-0.87
2023-02-07T06:33:30.000Z,-0.85
2023-02-07T06:34:30.000Z,-0.87
2023-02-07T06:35:29.000Z,-0.86
2023-02-07T06:36:29.000Z,-0.87
2023-02-07T06:37:30.000Z,-0.94
2023-02-07T06:38:29.000Z,-0.94
2023-02-07T06:39:29.000Z,-0.92
2023-02-07T06:40:29.000Z,-0.89
2023-02-07T06:41:29.000Z,-0.91
2023-02-07T06:42:29.000Z,-0.92
2023-02-07T06:43:29.000Z,-0.92
2023-02-07T06:44:29.000Z,-0.91
2023-02-07T06:45:29.000Z,-0.93
2023-02-07T06:46:30.000Z,-0.93
2023-02-07T06:47:29.000Z,-0.89
2023-02-07T06:48:29.000Z,-0.95
2023-02-07T06:49:30.000Z,-0.94
2023-02-07T06:50:29.000Z,-0.95
2023-02-07T06:51:30.000Z,-0.94
2023-02-07T06:52:29.000Z,-0.91
2023-02-07T06:53:29.000Z,-0.90
2023-02-07T06:54:29.000Z,-0.89
2023-02-07T06:55:36.000Z,-0.91
2023-02-07T06:56:30.000Z,-0.93
2023-02-07T06:57:29.000Z,-0.93
2023-02-07T06:58:29.000Z,-0.96
2023-02-07T06:59:30.000Z,-0.96
2023-02-07T07:00:30.000Z,-0.96
2023-02-07T07:01:30.000Z,-0.96
2023-02-07T07:02:29.000Z,-0.97
2023-02-07T07:03:30.000Z,-0.99
2023-02-07T07:04:30.000Z,-0.98
2023-02-07T07:05:30.000Z,-1.00
2023-02-07T07:06:29.000Z,-0.97
2023-02-07T07:07:29.000Z,-0.96
2023-02-07T07:08:29.000Z,-0.95
2023-02-07T07:09:29.000Z,-0.94
2023-02-07T07:10:29.000Z,-0.93
2023-02-07T07:11:30.000Z,-0.94
2023-02-07T07:12:29.000Z,-0.95
2023-02-07T07:13:29.000Z,-0.96
2023-02-07T07:14:29.000Z,-0.96
2023-02-07T07:15:29.000Z,-1.01
2023-02-07T07:16:29.000Z,-1.00
2023-02-07T07:17:29.000Z,-1.00
2023-02-07T07:18:29.000Z,-0.99
2023-02-07T07:19:29.000Z,-1.03
2023-02-07T07:20:29.000Z,-1.05
2023-02-07T07:21:30.000Z,-1.03
2023-02-07T07:22:29.000Z,-1.01
2023-02-07T07:23:30.000Z,-1.01
2023-02-07T07:24:29.000Z,-1.01
2023-02-07T07:25:29.000Z,-1.02
2023-02-07T07:26:29.000Z,-1.00
2023-02-07T07:27:30.000Z,-1.03
2023-02-07T07:28:30.000Z,-1.06
2023-02-07T07:29:29.000Z,-1.04
2023-02-07T07:30:30.000Z,-1.05
2023-02-07T07:31:29.000Z,-1.06
2023-02-07T07:32:31.000Z,-1.01
2023-02-07T07:33:29.000Z,-1.04
2023-02-07T07:34:30.000Z,-1.01
2023-02-07T07:35:29.000Z,-1.01
2023-02-07T07:36:29.000Z,-0.95
2023-02-07T07:37:30.000Z,-0.97
2023-02-07T07:38:30.000Z,-0.94
2023-02-07T07:39:30.000Z,-0.92
2023-02-07T07:40:29.000Z,-0.91
2023-02-07T07:41:29.000Z,-0.92
2023-02-07T07:42:29.000Z,-0.92
2023-02-07T07:43:29.000Z,-0.92
2023-02-07T07:44:29.000Z,-0.92
2023-02-07T07:45:29.000Z,-0.92
2023-02-07T07:46:29.000Z,-0.91
2023-02-07T07:47:29.000Z,-0.91
2023-02-07T07:48:29.000Z,-0.88
2023-02-07T07:49:29.000Z,-0.89
2023-02-07T07:50:29.000Z,-0.87
2023-02-07T07:51:29.000Z,-0.90
2023-02-07T07:52:29.000Z,-0.86
2023-02-07T07:53:29.000Z,-0.85
2023-02-07T07:54:29.000Z,-0.88
2023-02-07T07:55:29.000Z,-0.86
2023-02-07T07:56:30.000Z,-0.74
2023-02-07T07:57:29.000Z,-0.79
2023-02-07T07:58:30.000Z,-0.79
2023-02-07T07:59:29.000Z,-0.73
2023-02-07T08:00:29.000Z,-0.74
2023-02-07T08:01:29.000Z,-0.74
2023-02-07T08:02:29.000Z,-0.74
2023-02-07T08:03:29.000Z,-0.74
2023-02-07T08:04:29.000Z,-0.72
2023-02-07T08:05:29.000Z,-0.67
2023-02-07T08:06:29.000Z,-0.68
2023-02-07T08:07:29.000Z,-0.64
2023-02-07T08:08:29.000Z,-0.67
2023-02-07T08:09:29.000Z,-0.68
2023-02-07T08:10:29.000Z,-0.67
2023-02-07T08:11:28.000Z,-0.63
2023-02-07T08:12:29.000Z,-0.64
2023-02-07T08:13:29.000Z,-0.63
2023-02-07T08:14:29.000Z,-0.62
2023-02-07T08:15:29.000Z,-0.59
2023-02-07T08:16:29.000Z,-0.60
2023-02-07T08:17:29.000Z,-0.56
2023-02-07T08:18:29.000Z,-0.60
2023-02-07T08:19:29.000Z,-0.61
2023-02-07T08:20:29.000Z,-0.60
2023-02-07T08:21:30.000Z,-0.57
2023-02-07T08:22:29.000Z,-0.60
2023-02-07T08:23:29.000Z,-0.58
2023-02-07T08:24:29.000Z,-0.57
2023-02-07T08:25:29.000Z,-0.55
2023-02-07T08:26:29.000Z,-0.53
2023-02-07T08:27:29.000Z,-0.49
2023-02-07T08:28:29.000Z,-0.49
2023-02-07T08:29:29.000Z,-0.47
2023-02-07T08:30:28.000Z,-0.47
2023-02-07T08:31:29.000Z,-0.44
2023-02-07T08:32:29.000Z,-0.43
2023-02-07T08:33:29.000Z,-0.40
2023-02-07T08:34:35.000Z,-0.37
2023-02-07T08:35:29.000Z,-0.32
2023-02-07T08:36:29.000Z,-0.33
2023-02-07T08:37:29.000Z,-0.32
2023-02-07T08:38:28.000Z,-0.32
2023-02-07T08:39:29.000Z,-0.31
2023-02-07T08:40:29.000Z,-0.27
2023-02-07T08:41:29.000Z,-0.26
2023-02-07T08:42:29.000Z,-0.23
2023-02-07T08:43:29.000Z,-0.21
2023-02-07T08:44:29.000Z,-0.16
2023-02-07T08:45:28.000Z,-0.21
2023-02-07T08:46:28.000Z,-0.19
2023-02-07T08:47:29.000Z,-0.11
2023-02-07T08:48:29.000Z,-0.14
2023-02-07T08:49:29.000Z,-0.12
2023-02-07T08:50:29.000Z,-0.07
2023-02-07T08:51:28.000Z,-0.06
2023-02-07T08:52:29.000Z,-0.04
2023-02-07T08:53:28.000Z,-0.00
2023-02-07T08:54:29.000Z,0.05
2023-02-07T08:55:29.000Z,0.07
2023-02-07T08:56:28.000Z,0.11
2023-02-07T08:57:29.000Z,0.14
2023-02-07T08:58:29.000Z,0.12
2023-02-07T08:59:29.000Z,0.11
2023-02-07T09:00:29.000Z,0.11
2023-02-07T09:01:29.000Z,0.13
2023-02-07T09:02:28.000Z,0.10
2023-02-07T09:03:28.000Z,0.09
2023-02-07T09:04:28.000Z,0.05
2023-02-07T09:05:31.000Z,0.07
2023-02-07T09:06:29.000Z,0.10
2023-02-07T09:07:30.000Z,0.09
2023-02-07T09:08:29.000Z,0.13
2023-02-07T09:09:31.000Z,0.13
2023-02-07T09:10:30.000Z,0.12
2023-02-07T09:11:29.000Z,0.12
2023-02-07T09:12:30.000Z,0.13
2023-02-07T09:13:29.000Z,0.14
2023-02-07T09:14:29.000Z,0.18
2023-02-07T09:15:29.000Z,0.16
2023-02-07T09:16:29.000Z,0.22
2023-02-07T09:17:29.000Z,0.22
2023-02-07T09:18:30.000Z,0.21
2023-02-07T09:19:29.000Z,0.24
2023-02-07T09:20:29.000Z,0.26
2023-02-07T09:21:30.000Z,0.29
2023-02-07T09:22:30.000Z,0.33
2023-02-07T09:23:31.000Z,0.38
2023-02-07T09:24:30.000Z,0.41
2023-02-07T09:25:29.000Z,0.45
2023-02-07T09:26:32.000Z,0.44
2023-02-07T09:27:29.000Z,0.44
2023-02-07T09:28:29.000Z,0.48
2023-02-07T09:29:29.000Z,0.50
2023-02-07T09:30:29.000Z,0.51
2023-02-07T09:31:30.000Z,0.51
2023-02-07T09:32:29.000Z,0.56
2023-02-07T09:33:29.000Z,0.60
2023-02-07T09:34:31.000Z,0.63
2023-02-07T09:35:29.000Z,0.67
2023-02-07T09:36:30.000Z,0.69
2023-02-07T09:37:30.000Z,0.70
2023-02-07T09:38:30.000Z,0.72
2023-02-07T09:39:31.000Z,0.73
2023-02-07T09:40:33.000Z,0.73
2023-02-07T09:41:58.000Z,0.75
2023-02-07T09:42:37.000Z,0.78
2023-02-07T09:43:49.000Z,0.75
2023-02-07T09:44:39.000Z,0.76
2023-02-07T09:45:36.000Z,0.77
2023-02-07T09:46:36.000Z,0.82
2023-02-07T09:47:32.000Z,0.87
2023-02-07T09:48:39.000Z,0.87
2023-02-07T09:49:38.000Z,0.91
2023-02-07T09:50:37.000Z,0.92
2023-02-07T09:51:33.000Z,0.94
2023-02-07T09:52:35.000Z,0.96
2023-02-07T09:53:41.000Z,1.00
2023-02-07T09:54:39.000Z,1.01
2023-02-07T09:55:43.000Z,1.06
2023-02-07T09:56:31.000Z,1.06
2023-02-07T09:57:42.000Z,1.09
2023-02-07T09:58:43.000Z,1.11
2023-02-07T10:00:06.000Z,1.14
2023-02-07T10:00:32.000Z,1.18
2023-02-07T10:01:48.000Z,1.24
2023-02-07T10:02:37.000Z,1.25
2023-02-07T10:03:31.000Z,1.31
2023-02-07T10:04:37.000Z,1.29
2023-02-07T10:05:39.000Z,1.30
2023-02-07T10:06:29.000Z,1.27
2023-02-07T10:07:30.000Z,1.30
2023-02-07T10:08:30.000Z,1.34
2023-02-07T10:09:32.000Z,1.38
2023-02-07T10:10:40.000Z,1.42
2023-02-07T10:11:41.000Z,1.45
2023-02-07T10:12:50.000Z,1.46
2023-02-07T10:13:53.000Z,1.49
2023-02-07T10:14:54.000Z,1.51
2023-02-07T10:15:42.000Z,1.56
2023-02-07T10:16:44.000Z,1.57
2023-02-07T10:17:46.000Z,1.58
2023-02-07T10:18:43.000Z,1.62
2023-02-07T10:19:46.000Z,1.65
2023-02-07T10:20:39.000Z,1.64
2023-02-07T10:21:50.000Z,1.65
2023-02-07T10:22:39.000Z,1.69
2023-02-07T10:24:03.000Z,1.65
2023-02-07T10:24:39.000Z,1.64
2023-02-07T10:25:49.000Z,1.69
2023-02-07T10:26:41.000Z,1.72
2023-02-07T10:27:37.000Z,1.75
2023-02-07T10:28:39.000Z,1.76
2023-02-07T10:29:39.000Z,1.83
2023-02-07T10:30:34.000Z,1.87
2023-02-07T10:31:34.000Z,1.88
2023-02-07T10:32:36.000Z,1.90
2023-02-07T10:33:32.000Z,1.88
2023-02-07T10:34:35.000Z,1.96
2023-02-07T10:35:33.000Z,1.98
2023-02-07T10:36:32.000Z,1.98
2023-02-07T10:37:36.000Z,1.99
2023-02-07T10:38:37.000Z,2.06
2023-02-07T10:39:51.000Z,2.08
2023-02-07T10:40:49.000Z,2.13
2023-02-07T10:41:33.000Z,2.16
2023-02-07T10:42:34.000Z,2.16
2023-02-07T10:43:32.000Z,2.17
2023-02-07T10:44:29.000Z,2.19
2023-02-07T10:45:29.000Z,2.24
2023-02-07T10:46:30.000Z,2.32
2023-02-07T10:47:34.000Z,2.33
2023-02-07T10:48:29.000Z,2.36
2023-02-07T10:49:32.000Z,2.39
2023-02-07T10:50:29.000Z,2.42
2023-02-07T10:51:36.000Z,2.43
2023-02-07T10:52:35.000Z,2.47
2023-02-07T10:53:39.000Z,2.48
2023-02-07T10:54:48.000Z,2.50
2023-02-07T10:55:37.000Z,2.53
2023-02-07T10:56:31.000Z,2.53
2023-02-07T10:57:30.000Z,2.55
2023-02-07T10:58:37.000Z,2.58
2023-02-07T10:59:37.000Z,2.65
2023-02-07T11:00:32.000Z,2.67
2023-02-07T11:01:31.000Z,2.68
2023-02-07T11:02:58.000Z,2.72
2023-02-07T11:03:29.000Z,2.74
2023-02-07T11:04:35.000Z,2.80
2023-02-07T11:05:34.000Z,2.84
2023-02-07T11:06:31.000Z,2.85
2023-02-07T11:07:29.000Z,2.88
2023-02-07T11:08:31.000Z,2.88
2023-02-07T11:09:30.000Z,2.95
2023-02-07T11:10:35.000Z,2.97
2023-02-07T11:11:31.000Z,2.99
2023-02-07T11:12:29.000Z,3.00
2023-02-07T11:13:30.000Z,2.98
2023-02-07T11:14:29.000Z,2.93
2023-02-07T11:15:47.000Z,2.97
2023-02-07T11:16:30.000Z,2.96
2023-02-07T11:17:32.000Z,3.03
2023-02-07T11:18:45.000Z,3.05
2023-02-07T11:19:30.000Z,3.04
2023-02-07T11:20:35.000Z,3.05
2023-02-07T11:21:48.000Z,3.03
2023-02-07T11:22:29.000Z,3.03
2023-02-07T11:23:29.000Z,2.93
2023-02-07T11:24:34.000Z,2.99
2023-02-07T11:25:41.000Z,2.88
2023-02-07T11:26:31.000Z,2.94
2023-02-07T11:27:36.000Z,2.98
2023-02-07T11:28:31.000Z,3.02
2023-02-07T11:29:33.000Z,3.06
2023-02-07T11:30:34.000Z,3.08
2023-02-07T11:31:34.000Z,3.09
2023-02-07T11:32:30.000Z,3.12
2023-02-07T11:33:32.000Z,3.16
2023-02-07T11:34:43.000Z,3.07
2023-02-07T11:35:29.000Z,2.88
2023-02-07T11:36:32.000Z,3.00
2023-02-07T11:37:33.000Z,3.06
2023-02-07T11:38:35.000Z,3.12
2023-02-07T11:39:29.000Z,3.20
2023-02-07T11:40:36.000Z,3.25
2023-02-07T11:41:31.000Z,3.32
2023-02-07T11:42:30.000Z,3.37
2023-02-07T11:43:29.000Z,3.43
2023-02-07T11:44:29.000Z,3.47
2023-02-07T11:45:32.000Z,3.52
2023-02-07T11:46:36.000Z,3.58
2023-02-07T11:47:31.000Z,3.65
2023-02-07T11:48:34.000Z,3.72
2023-02-07T11:49:40.000Z,3.77
2023-02-07T11:50:35.000Z,3.80
2023-02-07T11:51:31.000Z,3.85
2023-02-07T11:52:32.000Z,3.91
2023-02-07T11:53:39.000Z,3.93
2023-02-07T11:54:30.000Z,3.99
2023-02-07T11:55:37.000Z,4.00
2023-02-07T11:56:41.000Z,4.03
2023-02-07T11:57:31.000Z,4.10
2023-02-07T11:58:36.000Z,3.98
2023-02-07T11:59:32.000Z,3.98
2023-02-07T12:00:35.000Z,4.08
2023-02-07T12:01:32.000Z,4.13
2023-02-07T12:02:29.000Z,4.16
2023-02-07T12:03:55.000Z,4.16
2023-02-07T12:04:33.000Z,4.15
2023-02-07T12:05:36.000Z,4.12
2023-02-07T12:06:45.000Z,4.14
2023-02-07T12:07:37.000Z,4.22
2023-02-07T12:08:33.000Z,4.26
2023-02-07T12:09:39.000Z,4.31
2023-02-07T12:10:33.000Z,4.36
2023-02-07T12:11:36.000Z,4.39
2023-02-07T12:12:42.000Z,4.37
2023-02-07T12:13:37.000Z,4.41
2023-02-07T12:14:39.000Z,4.39
2023-02-07T12:15:39.000Z,4.46
2023-02-07T12:16:34.000Z,4.47
2023-02-07T12:17:39.000Z,4.43
2023-02-07T12:18:49.000Z,4.40
2023-02-07T12:19:33.000Z,4.36
2023-02-07T12:20:37.000Z,4.34
2023-02-07T12:21:49.000Z,4.34
2023-02-07T12:22:36.000Z,4.36
2023-02-07T12:23:43.000Z,4.39
2023-02-07T12:24:39.000Z,4.34
2023-02-07T12:25:38.000Z,4.15
2023-02-07T12:26:33.000Z,4.19
2023-02-07T12:27:35.000Z,4.29
2023-02-07T12:28:50.000Z,4.34
2023-02-07T12:29:39.000Z,4.33
2023-02-07T12:30:41.000Z,4.36
2023-02-07T12:31:47.000Z,4.43
2023-02-07T12:32:39.000Z,4.49
2023-02-07T12:33:40.000Z,4.48
2023-02-07T12:34:36.000Z,4.57
2023-02-07T12:35:41.000Z,4.61
2023-02-07T12:36:34.000Z,4.65
2023-02-07T12:37:49.000Z,4.71
2023-02-07T12:38:49.000Z,4.75
2023-02-07T12:39:39.000Z,4.80
2023-02-07T12:40:47.000Z,4.84
2023-02-07T12:41:39.000Z,4.86
2023-02-07T12:42:38.000Z,4.91
2023-02-07T12:43:31.000Z,4.81
2023-02-07T12:44:33.000Z,4.84
2023-02-07T12:45:52.000Z,4.90
2023-02-07T12:46:55.000Z,4.98
2023-02-07T12:47:39.000Z,4.97
2023-02-07T12:48:52.000Z,4.97
2023-02-07T12:49:59.000Z,5.05
2023-02-07T12:50:39.000Z,5.12
2023-02-07T12:51:49.000Z,5.17
2023-02-07T12:52:51.000Z,5.18
2023-02-07T12:53:49.000Z,5.21
2023-02-07T12:54:39.000Z,5.22
2023-02-07T12:55:39.000Z,5.24
2023-02-07T12:56:40.000Z,5.27
2023-02-07T12:57:41.000Z,5.29
2023-02-07T12:58:39.000Z,5.29
2023-02-07T12:59:39.000Z,5.36
2023-02-07T13:01:01.000Z,5.36
2023-02-07T13:01:49.000Z,5.36
2023-02-07T13:02:38.000Z,5.44
2023-02-07T13:03:48.000Z,5.45
2023-02-07T13:04:48.000Z,5.50
2023-02-07T13:06:02.000Z,5.54
2023-02-07T13:06:40.000Z,5.58
2023-02-07T13:07:40.000Z,5.61
2023-02-07T13:08:38.000Z,5.60
2023-02-07T13:09:39.000Z,5.54
2023-02-07T13:10:43.000Z,5.46